sensor_id;sensor_type;location;lat;lon;timestamp;temperature;humidity
33699;DHT22;20032;52.436;13.312;2024-01-10T00:01:33;-5.80;99.90
33699;DHT22;20032;52.436;13.312;2024-01-10T00:03:59;-5.80;99.90
33699;DHT22;20032;52.436;13.312;2024-01-10T00:06:24;-5.80;99.90
33699;DHT22;20032;52.436;13.312;2024-01-10T00:08:50;-5.80;99.90
33699;DHT22;20032;52.436;13.312;2024-01-10T00:11:15;-5.80;99.90
33699;DHT22;20032;52.436;13.312;2024-01-10T00:13:41;-5.80;99.90
33699;DHT22;20032;52.436;13.312;2024-01-10T00:16:07;-5.80;99.90
33699;DHT22;20032;52.436;13.312;2024-01-10T00:18:33;-5.80;99.90
33699;DHT22;20032;52.436;13.312;2024-01-10T00:20:59;-5.80;99.90
33699;DHT22;20032;52.436;13.312;2024-01-10T00:23:24;-5.80;99.90
33699;DHT22;20032;52.436;13.312;2024-01-10T00:25:50;-5.80;99.90
33699;DHT22;20032;52.436;13.312;2024-01-10T00:28:15;-5.80;99.90
33699;DHT22;20032;52.436;13.312;2024-01-10T00:30:43;-5.80;99.90
33699;DHT22;20032;52.436;13.312;2024-01-10T00:33:09;-5.80;99.90
33699;DHT22;20032;52.436;13.312;2024-01-10T00:35:34;-5.80;99.90
33699;DHT22;20032;52.436;13.312;2024-01-10T00:38:00;-5.80;99.90
33699;DHT22;20032;52.436;13.312;2024-01-10T00:40:26;-5.80;99.90
33699;DHT22;20032;52.436;13.312;2024-01-10T00:42:51;-5.80;99.90
33699;DHT22;20032;52.436;13.312;2024-01-10T00:45:17;-5.80;99.90
33699;DHT22;20032;52.436;13.312;2024-01-10T00:47:42;-5.80;99.90
33699;DHT22;20032;52.436;13.312;2024-01-10T00:50:08;-5.90;99.90
33699;DHT22;20032;52.436;13.312;2024-01-10T00:52:34;-5.90;99.90
33699;DHT22;20032;52.436;13.312;2024-01-10T00:55:00;-5.90;99.90
33699;DHT22;20032;52.436;13.312;2024-01-10T00:57:25;-5.80;99.90
33699;DHT22;20032;52.436;13.312;2024-01-10T00:59:51;-5.90;99.90
33699;DHT22;20032;52.436;13.312;2024-01-10T01:02:16;-5.90;99.90
33699;DHT22;20032;52.436;13.312;2024-01-10T01:04:42;-5.90;99.90
33699;DHT22;20032;52.436;13.312;2024-01-10T01:07:07;-5.90;99.90
33699;DHT22;20032;52.436;13.312;2024-01-10T01:09:34;-5.90;99.90
33699;DHT22;20032;52.436;13.312;2024-01-10T01:11:59;-5.80;99.90
33699;DHT22;20032;52.436;13.312;2024-01-10T01:14:25;-5.80;99.90
33699;DHT22;20032;52.436;13.312;2024-01-10T01:16:51;-5.90;99.90
33699;DHT22;20032;52.436;13.312;2024-01-10T01:19:17;-6.00;99.90
33699;DHT22;20032;52.436;13.312;2024-01-10T01:21:43;-5.90;99.90
33699;DHT22;20032;52.436;13.312;2024-01-10T01:24:08;-6.00;99.90
33699;DHT22;20032;52.436;13.312;2024-01-10T01:26:34;-6.00;99.90
33699;DHT22;20032;52.436;13.312;2024-01-10T01:28:59;-6.00;99.90
33699;DHT22;20032;52.436;13.312;2024-01-10T01:31:25;-6.20;99.90
33699;DHT22;20032;52.436;13.312;2024-01-10T01:33:50;-6.10;99.90
33699;DHT22;20032;52.436;13.312;2024-01-10T01:36:16;-6.10;99.90
33699;DHT22;20032;52.436;13.312;2024-01-10T01:38:41;-6.00;99.90
33699;DHT22;20032;52.436;13.312;2024-01-10T01:41:07;-6.00;99.90
33699;DHT22;20032;52.436;13.312;2024-01-10T01:43:33;-6.10;99.90
33699;DHT22;20032;52.436;13.312;2024-01-10T01:45:59;-6.20;99.90
33699;DHT22;20032;52.436;13.312;2024-01-10T01:48:25;-6.30;99.90
33699;DHT22;20032;52.436;13.312;2024-01-10T01:50:54;-6.20;99.90
33699;DHT22;20032;52.436;13.312;2024-01-10T01:53:21;-6.20;99.90
33699;DHT22;20032;52.436;13.312;2024-01-10T01:55:47;-6.30;99.90
33699;DHT22;20032;52.436;13.312;2024-01-10T01:58:13;-6.30;99.90
33699;DHT22;20032;52.436;13.312;2024-01-10T02:00:39;-6.20;99.90
33699;DHT22;20032;52.436;13.312;2024-01-10T02:03:05;-6.20;99.90
33699;DHT22;20032;52.436;13.312;2024-01-10T02:19:19;-5.90;99.90
33699;DHT22;20032;52.436;13.312;2024-01-10T02:21:46;-6.00;99.90
33699;DHT22;20032;52.436;13.312;2024-01-10T02:24:11;-5.90;99.90
33699;DHT22;20032;52.436;13.312;2024-01-10T02:26:37;-5.90;99.90
33699;DHT22;20032;52.436;13.312;2024-01-10T02:29:03;-5.90;99.90
33699;DHT22;20032;52.436;13.312;2024-01-10T02:31:29;-5.90;99.90
33699;DHT22;20032;52.436;13.312;2024-01-10T02:33:54;-5.90;99.90
33699;DHT22;20032;52.436;13.312;2024-01-10T02:36:20;-5.90;99.90
33699;DHT22;20032;52.436;13.312;2024-01-10T02:38:45;-5.90;99.90
33699;DHT22;20032;52.436;13.312;2024-01-10T02:41:11;-6.00;99.90
33699;DHT22;20032;52.436;13.312;2024-01-10T02:43:36;-5.90;99.90
33699;DHT22;20032;52.436;13.312;2024-01-10T02:46:02;-6.10;99.90
33699;DHT22;20032;52.436;13.312;2024-01-10T02:48:27;-6.00;99.90
33699;DHT22;20032;52.436;13.312;2024-01-10T02:50:53;-6.00;99.90
33699;DHT22;20032;52.436;13.312;2024-01-10T02:53:20;-6.00;99.90
33699;DHT22;20032;52.436;13.312;2024-01-10T02:55:45;-6.10;99.90
33699;DHT22;20032;52.436;13.312;2024-01-10T02:58:11;-6.10;99.90
33699;DHT22;20032;52.436;13.312;2024-01-10T03:00:37;-6.10;99.90
33699;DHT22;20032;52.436;13.312;2024-01-10T03:03:03;-6.00;99.90
33699;DHT22;20032;52.436;13.312;2024-01-10T03:05:29;-6.00;99.90
33699;DHT22;20032;52.436;13.312;2024-01-10T03:07:54;-6.00;99.90
33699;DHT22;20032;52.436;13.312;2024-01-10T03:10:20;-6.00;99.90
33699;DHT22;20032;52.436;13.312;2024-01-10T03:12:45;-6.00;99.90
33699;DHT22;20032;52.436;13.312;2024-01-10T03:15:10;-6.00;99.90
33699;DHT22;20032;52.436;13.312;2024-01-10T03:17:36;-6.00;99.90
33699;DHT22;20032;52.436;13.312;2024-01-10T03:20:02;-6.00;99.90
33699;DHT22;20032;52.436;13.312;2024-01-10T03:22:30;-6.00;99.90
33699;DHT22;20032;52.436;13.312;2024-01-10T03:24:56;-5.90;99.90
33699;DHT22;20032;52.436;13.312;2024-01-10T03:27:21;-5.90;99.90
33699;DHT22;20032;52.436;13.312;2024-01-10T03:29:47;-5.90;99.90
33699;DHT22;20032;52.436;13.312;2024-01-10T03:32:12;-6.00;99.90
33699;DHT22;20032;52.436;13.312;2024-01-10T03:34:38;-5.90;99.90
33699;DHT22;20032;52.436;13.312;2024-01-10T03:37:04;-5.90;99.90
33699;DHT22;20032;52.436;13.312;2024-01-10T03:39:29;-6.00;99.90
33699;DHT22;20032;52.436;13.312;2024-01-10T03:41:55;-6.00;99.90
33699;DHT22;20032;52.436;13.312;2024-01-10T03:44:21;-6.00;99.90
33699;DHT22;20032;52.436;13.312;2024-01-10T03:47:38;-6.10;99.90
33699;DHT22;20032;52.436;13.312;2024-01-10T03:56:37;-6.00;99.90
33699;DHT22;20032;52.436;13.312;2024-01-10T03:59:03;-6.10;99.90
33699;DHT22;20032;52.436;13.312;2024-01-10T04:01:29;-6.10;99.90
33699;DHT22;20032;52.436;13.312;2024-01-10T04:03:54;-6.10;99.90
33699;DHT22;20032;52.436;13.312;2024-01-10T04:06:20;-6.20;99.90
33699;DHT22;20032;52.436;13.312;2024-01-10T04:08:45;-6.20;99.90
33699;DHT22;20032;52.436;13.312;2024-01-10T04:11:11;-6.30;99.90
33699;DHT22;20032;52.436;13.312;2024-01-10T04:13:36;-6.20;99.90
33699;DHT22;20032;52.436;13.312;2024-01-10T04:16:02;-6.20;99.90
33699;DHT22;20032;52.436;13.312;2024-01-10T04:18:27;-6.20;99.90
33699;DHT22;20032;52.436;13.312;2024-01-10T04:20:53;-6.20;99.90
33699;DHT22;20032;52.436;13.312;2024-01-10T04:23:18;-6.20;99.90
33699;DHT22;20032;52.436;13.312;2024-01-10T04:25:44;-6.20;99.90
33699;DHT22;20032;52.436;13.312;2024-01-10T04:28:09;-6.20;99.90
33699;DHT22;20032;52.436;13.312;2024-01-10T04:30:34;-6.20;99.90
33699;DHT22;20032;52.436;13.312;2024-01-10T04:33:00;-6.10;99.90
33699;DHT22;20032;52.436;13.312;2024-01-10T04:35:25;-6.10;99.90
33699;DHT22;20032;52.436;13.312;2024-01-10T04:37:51;-6.10;99.90
33699;DHT22;20032;52.436;13.312;2024-01-10T04:40:16;-6.20;99.90
33699;DHT22;20032;52.436;13.312;2024-01-10T04:42:42;-6.30;99.90
33699;DHT22;20032;52.436;13.312;2024-01-10T04:45:08;-6.30;99.90
33699;DHT22;20032;52.436;13.312;2024-01-10T04:47:34;-6.40;99.90
33699;DHT22;20032;52.436;13.312;2024-01-10T04:49:59;-6.40;99.90
33699;DHT22;20032;52.436;13.312;2024-01-10T04:52:25;-6.50;99.90
33699;DHT22;20032;52.436;13.312;2024-01-10T04:54:50;-6.50;99.90
33699;DHT22;20032;52.436;13.312;2024-01-10T04:57:15;-6.60;99.90
33699;DHT22;20032;52.436;13.312;2024-01-10T04:59:41;-6.60;99.90
33699;DHT22;20032;52.436;13.312;2024-01-10T05:02:07;-6.50;99.90
33699;DHT22;20032;52.436;13.312;2024-01-10T05:04:33;-6.40;99.90
33699;DHT22;20032;52.436;13.312;2024-01-10T05:06:58;-6.30;99.90
33699;DHT22;20032;52.436;13.312;2024-01-10T05:09:24;-6.20;99.90
33699;DHT22;20032;52.436;13.312;2024-01-10T05:11:49;-6.30;99.90
33699;DHT22;20032;52.436;13.312;2024-01-10T05:14:17;-6.20;99.90
33699;DHT22;20032;52.436;13.312;2024-01-10T05:16:45;-6.20;99.90
33699;DHT22;20032;52.436;13.312;2024-01-10T05:19:10;-6.20;99.90
33699;DHT22;20032;52.436;13.312;2024-01-10T05:21:36;-6.30;99.90
33699;DHT22;20032;52.436;13.312;2024-01-10T05:24:01;-6.20;99.90
33699;DHT22;20032;52.436;13.312;2024-01-10T05:26:27;-6.20;99.90
33699;DHT22;20032;52.436;13.312;2024-01-10T05:28:52;-6.30;99.90
33699;DHT22;20032;52.436;13.312;2024-01-10T05:31:18;-6.30;99.90
33699;DHT22;20032;52.436;13.312;2024-01-10T05:33:43;-6.30;99.90
33699;DHT22;20032;52.436;13.312;2024-01-10T05:36:10;-6.20;99.90
33699;DHT22;20032;52.436;13.312;2024-01-10T05:38:37;-6.30;99.90
33699;DHT22;20032;52.436;13.312;2024-01-10T05:41:02;-6.30;99.90
33699;DHT22;20032;52.436;13.312;2024-01-10T05:43:28;-6.30;99.90
33699;DHT22;20032;52.436;13.312;2024-01-10T05:45:53;-6.30;99.90
33699;DHT22;20032;52.436;13.312;2024-01-10T05:48:19;-6.30;99.90
33699;DHT22;20032;52.436;13.312;2024-01-10T05:50:44;-6.30;99.90
33699;DHT22;20032;52.436;13.312;2024-01-10T05:53:10;-6.30;99.90
33699;DHT22;20032;52.436;13.312;2024-01-10T05:55:37;-6.20;99.90
33699;DHT22;20032;52.436;13.312;2024-01-10T05:58:03;-6.20;99.90
33699;DHT22;20032;52.436;13.312;2024-01-10T06:00:29;-6.20;99.90
33699;DHT22;20032;52.436;13.312;2024-01-10T06:02:54;-6.30;99.90
33699;DHT22;20032;52.436;13.312;2024-01-10T06:05:20;-6.30;99.90
33699;DHT22;20032;52.436;13.312;2024-01-10T06:07:45;-6.30;99.90
33699;DHT22;20032;52.436;13.312;2024-01-10T06:10:11;-6.30;99.90
33699;DHT22;20032;52.436;13.312;2024-01-10T06:12:37;-6.30;99.90
33699;DHT22;20032;52.436;13.312;2024-01-10T06:15:03;-6.30;99.90
33699;DHT22;20032;52.436;13.312;2024-01-10T06:17:29;-6.40;99.90
33699;DHT22;20032;52.436;13.312;2024-01-10T06:19:57;-6.40;99.90
33699;DHT22;20032;52.436;13.312;2024-01-10T06:22:25;-6.40;99.90
33699;DHT22;20032;52.436;13.312;2024-01-10T06:24:52;-6.40;99.90
33699;DHT22;20032;52.436;13.312;2024-01-10T06:27:18;-6.40;99.90
33699;DHT22;20032;52.436;13.312;2024-01-10T06:29:44;-6.30;99.90
33699;DHT22;20032;52.436;13.312;2024-01-10T06:32:12;-6.40;99.90
33699;DHT22;20032;52.436;13.312;2024-01-10T06:34:39;-6.30;99.90
33699;DHT22;20032;52.436;13.312;2024-01-10T06:37:05;-6.40;99.90
33699;DHT22;20032;52.436;13.312;2024-01-10T06:39:33;-6.40;99.90
33699;DHT22;20032;52.436;13.312;2024-01-10T06:41:59;-6.20;99.90
33699;DHT22;20032;52.436;13.312;2024-01-10T06:44:24;-6.20;99.90
33699;DHT22;20032;52.436;13.312;2024-01-10T06:46:53;-6.30;99.90
33699;DHT22;20032;52.436;13.312;2024-01-10T06:49:18;-6.30;99.90
33699;DHT22;20032;52.436;13.312;2024-01-10T06:51:45;-6.30;99.90
33699;DHT22;20032;52.436;13.312;2024-01-10T06:54:10;-6.30;99.90
33699;DHT22;20032;52.436;13.312;2024-01-10T06:56:37;-6.20;99.90
33699;DHT22;20032;52.436;13.312;2024-01-10T06:59:03;-6.40;99.90
33699;DHT22;20032;52.436;13.312;2024-01-10T07:01:28;-6.30;99.90
33699;DHT22;20032;52.436;13.312;2024-01-10T07:03:54;-6.30;99.90
33699;DHT22;20032;52.436;13.312;2024-01-10T07:06:20;-6.30;99.90
33699;DHT22;20032;52.436;13.312;2024-01-10T07:08:49;-6.30;99.90
33699;DHT22;20032;52.436;13.312;2024-01-10T07:11:16;-6.30;99.90
33699;DHT22;20032;52.436;13.312;2024-01-10T07:13:42;-6.30;99.90
33699;DHT22;20032;52.436;13.312;2024-01-10T07:16:09;-6.20;99.90
33699;DHT22;20032;52.436;13.312;2024-01-10T07:18:34;-6.20;99.90
33699;DHT22;20032;52.436;13.312;2024-01-10T07:21:01;-6.20;99.90
33699;DHT22;20032;52.436;13.312;2024-01-10T07:23:27;-6.20;99.90
33699;DHT22;20032;52.436;13.312;2024-01-10T07:25:52;-6.10;99.90
33699;DHT22;20032;52.436;13.312;2024-01-10T07:28:18;-6.10;99.90
33699;DHT22;20032;52.436;13.312;2024-01-10T07:30:45;-6.10;99.90
33699;DHT22;20032;52.436;13.312;2024-01-10T07:33:11;-6.20;99.90
33699;DHT22;20032;52.436;13.312;2024-01-10T07:35:37;-6.40;99.90
33699;DHT22;20032;52.436;13.312;2024-01-10T07:38:04;-6.40;99.90
33699;DHT22;20032;52.436;13.312;2024-01-10T07:40:33;-6.40;99.90
33699;DHT22;20032;52.436;13.312;2024-01-10T07:42:59;-6.40;99.90
33699;DHT22;20032;52.436;13.312;2024-01-10T07:45:25;-6.40;99.90
33699;DHT22;20032;52.436;13.312;2024-01-10T07:47:50;-6.40;99.90
33699;DHT22;20032;52.436;13.312;2024-01-10T07:50:16;-6.30;99.90
33699;DHT22;20032;52.436;13.312;2024-01-10T07:52:43;-6.30;99.90
33699;DHT22;20032;52.436;13.312;2024-01-10T07:55:10;-6.20;99.90
33699;DHT22;20032;52.436;13.312;2024-01-10T07:57:36;-6.20;99.90
33699;DHT22;20032;52.436;13.312;2024-01-10T08:00:04;-6.10;99.90
33699;DHT22;20032;52.436;13.312;2024-01-10T08:02:30;-6.10;99.90
33699;DHT22;20032;52.436;13.312;2024-01-10T08:05:01;-6.10;99.90
33699;DHT22;20032;52.436;13.312;2024-01-10T08:07:30;-6.00;99.90
33699;DHT22;20032;52.436;13.312;2024-01-10T08:09:59;-5.90;99.90
33699;DHT22;20032;52.436;13.312;2024-01-10T08:12:24;-5.80;99.90
33699;DHT22;20032;52.436;13.312;2024-01-10T08:14:50;-5.70;99.90
33699;DHT22;20032;52.436;13.312;2024-01-10T08:17:16;-5.70;99.90
33699;DHT22;20032;52.436;13.312;2024-01-10T08:19:42;-5.60;99.90
33699;DHT22;20032;52.436;13.312;2024-01-10T08:22:07;-5.50;99.90
33699;DHT22;20032;52.436;13.312;2024-01-10T08:24:34;-5.50;99.90
33699;DHT22;20032;52.436;13.312;2024-01-10T08:26:59;-5.40;99.90
33699;DHT22;20032;52.436;13.312;2024-01-10T08:29:25;-5.30;99.90
33699;DHT22;20032;52.436;13.312;2024-01-10T08:31:57;-5.30;99.90
33699;DHT22;20032;52.436;13.312;2024-01-10T08:34:23;-5.20;99.90
33699;DHT22;20032;52.436;13.312;2024-01-10T08:36:49;-5.20;99.90
33699;DHT22;20032;52.436;13.312;2024-01-10T08:39:16;-5.10;99.90
33699;DHT22;20032;52.436;13.312;2024-01-10T08:41:42;-5.00;99.90
33699;DHT22;20032;52.436;13.312;2024-01-10T08:44:10;-5.00;99.90
33699;DHT22;20032;52.436;13.312;2024-01-10T08:46:37;-4.80;99.90
33699;DHT22;20032;52.436;13.312;2024-01-10T08:49:03;-4.70;99.90
33699;DHT22;20032;52.436;13.312;2024-01-10T08:51:28;-4.70;99.90
33699;DHT22;20032;52.436;13.312;2024-01-10T08:53:54;-4.60;99.90
33699;DHT22;20032;52.436;13.312;2024-01-10T08:56:19;-4.50;99.90
33699;DHT22;20032;52.436;13.312;2024-01-10T08:58:45;-4.50;99.90
33699;DHT22;20032;52.436;13.312;2024-01-10T09:01:11;-4.40;99.90
33699;DHT22;20032;52.436;13.312;2024-01-10T09:03:36;-4.30;99.90
33699;DHT22;20032;52.436;13.312;2024-01-10T09:06:03;-4.20;99.90
33699;DHT22;20032;52.436;13.312;2024-01-10T09:08:30;-4.10;99.90
33699;DHT22;20032;52.436;13.312;2024-01-10T09:10:55;-4.10;99.90
33699;DHT22;20032;52.436;13.312;2024-01-10T09:13:21;-4.00;99.90
33699;DHT22;20032;52.436;13.312;2024-01-10T09:15:46;-3.90;99.90
33699;DHT22;20032;52.436;13.312;2024-01-10T09:18:12;-3.90;99.90
33699;DHT22;20032;52.436;13.312;2024-01-10T09:20:37;-3.80;99.90
33699;DHT22;20032;52.436;13.312;2024-01-10T09:23:05;-3.70;99.90
33699;DHT22;20032;52.436;13.312;2024-01-10T09:25:30;-3.70;99.90
33699;DHT22;20032;52.436;13.312;2024-01-10T09:27:57;-3.60;99.90
33699;DHT22;20032;52.436;13.312;2024-01-10T09:30:22;-3.50;99.90
33699;DHT22;20032;52.436;13.312;2024-01-10T09:32:49;-3.50;99.90
33699;DHT22;20032;52.436;13.312;2024-01-10T09:35:15;-3.50;99.90
33699;DHT22;20032;52.436;13.312;2024-01-10T09:37:41;-3.30;99.90
33699;DHT22;20032;52.436;13.312;2024-01-10T09:40:07;-3.20;99.90
33699;DHT22;20032;52.436;13.312;2024-01-10T09:42:34;-3.10;99.90
33699;DHT22;20032;52.436;13.312;2024-01-10T09:45:01;-3.00;99.90
33699;DHT22;20032;52.436;13.312;2024-01-10T09:47:28;-2.90;99.90
33699;DHT22;20032;52.436;13.312;2024-01-10T09:49:54;-2.80;99.90
33699;DHT22;20032;52.436;13.312;2024-01-10T09:52:25;-2.70;99.90
33699;DHT22;20032;52.436;13.312;2024-01-10T09:54:55;-2.70;99.90
33699;DHT22;20032;52.436;13.312;2024-01-10T09:57:23;-2.60;99.90
33699;DHT22;20032;52.436;13.312;2024-01-10T09:59:50;-2.40;99.90
33699;DHT22;20032;52.436;13.312;2024-01-10T10:02:18;-2.40;99.90
33699;DHT22;20032;52.436;13.312;2024-01-10T10:04:53;-2.20;99.90
33699;DHT22;20032;52.436;13.312;2024-01-10T10:07:21;-2.10;99.90
33699;DHT22;20032;52.436;13.312;2024-01-10T10:09:47;-2.00;99.90
33699;DHT22;20032;52.436;13.312;2024-01-10T10:12:13;-1.90;99.90
33699;DHT22;20032;52.436;13.312;2024-01-10T10:14:39;-1.80;99.90
33699;DHT22;20032;52.436;13.312;2024-01-10T10:17:20;-1.80;99.90
33699;DHT22;20032;52.436;13.312;2024-01-10T10:19:46;-1.80;99.90
33699;DHT22;20032;52.436;13.312;2024-01-10T10:22:13;-1.80;99.90
33699;DHT22;20032;52.436;13.312;2024-01-10T10:24:40;-1.80;99.90
33699;DHT22;20032;52.436;13.312;2024-01-10T10:27:08;-1.70;99.90
33699;DHT22;20032;52.436;13.312;2024-01-10T10:29:36;-1.70;99.90
33699;DHT22;20032;52.436;13.312;2024-01-10T10:32:03;-1.60;99.90
33699;DHT22;20032;52.436;13.312;2024-01-10T10:34:31;-1.50;99.90
33699;DHT22;20032;52.436;13.312;2024-01-10T10:36:58;-1.60;99.90
33699;DHT22;20032;52.436;13.312;2024-01-10T10:39:25;-1.60;99.90
33699;DHT22;20032;52.436;13.312;2024-01-10T10:41:51;-1.60;99.90
33699;DHT22;20032;52.436;13.312;2024-01-10T10:44:23;-1.40;99.90
33699;DHT22;20032;52.436;13.312;2024-01-10T10:46:50;-1.30;99.90
33699;DHT22;20032;52.436;13.312;2024-01-10T10:49:18;-1.30;99.90
33699;DHT22;20032;52.436;13.312;2024-01-10T10:51:50;-1.30;99.90
33699;DHT22;20032;52.436;13.312;2024-01-10T10:54:16;-1.10;99.90
33699;DHT22;20032;52.436;13.312;2024-01-10T10:56:43;-1.10;99.90
33699;DHT22;20032;52.436;13.312;2024-01-10T10:59:12;-1.10;99.90
33699;DHT22;20032;52.436;13.312;2024-01-10T11:01:39;-1.00;99.90
33699;DHT22;20032;52.436;13.312;2024-01-10T11:04:06;-0.90;99.90
33699;DHT22;20032;52.436;13.312;2024-01-10T11:06:33;-1.00;99.90
33699;DHT22;20032;52.436;13.312;2024-01-10T11:09:04;-1.10;99.90
33699;DHT22;20032;52.436;13.312;2024-01-10T11:14:39;-0.90;99.90
33699;DHT22;20032;52.436;13.312;2024-01-10T11:21:04;-0.70;99.90
33699;DHT22;20032;52.436;13.312;2024-01-10T11:25:36;-0.40;99.90
33699;DHT22;20032;52.436;13.312;2024-01-10T11:28:03;-0.20;99.90
33699;DHT22;20032;52.436;13.312;2024-01-10T11:30:37;-0.10;99.90
33699;DHT22;20032;52.436;13.312;2024-01-10T11:33:30;-0.10;99.90
33699;DHT22;20032;52.436;13.312;2024-01-10T11:36:17;0.00;99.90
33699;DHT22;20032;52.436;13.312;2024-01-10T11:46:47;0.60;99.90
33699;DHT22;20032;52.436;13.312;2024-01-10T11:49:17;0.60;99.90
33699;DHT22;20032;52.436;13.312;2024-01-10T11:51:43;0.80;99.90
33699;DHT22;20032;52.436;13.312;2024-01-10T11:57:07;1.20;99.90
33699;DHT22;20032;52.436;13.312;2024-01-10T11:59:34;1.00;99.90
33699;DHT22;20032;52.436;13.312;2024-01-10T12:02:00;0.90;99.90
33699;DHT22;20032;52.436;13.312;2024-01-10T12:04:32;1.30;99.90
33699;DHT22;20032;52.436;13.312;2024-01-10T12:06:58;1.60;99.90
33699;DHT22;20032;52.436;13.312;2024-01-10T12:09:24;1.80;99.90
33699;DHT22;20032;52.436;13.312;2024-01-10T12:11:52;2.10;99.90
33699;DHT22;20032;52.436;13.312;2024-01-10T12:14:18;2.40;99.90
33699;DHT22;20032;52.436;13.312;2024-01-10T12:16:46;2.40;99.90
33699;DHT22;20032;52.436;13.312;2024-01-10T12:19:12;2.70;99.00
33699;DHT22;20032;52.436;13.312;2024-01-10T12:21:39;2.70;98.70
33699;DHT22;20032;52.436;13.312;2024-01-10T12:24:05;2.80;98.90
33699;DHT22;20032;52.436;13.312;2024-01-10T12:26:31;3.10;97.50
33699;DHT22;20032;52.436;13.312;2024-01-10T12:28:58;3.00;97.10
33699;DHT22;20032;52.436;13.312;2024-01-10T12:31:27;3.10;96.80
33699;DHT22;20032;52.436;13.312;2024-01-10T12:33:56;3.10;96.70
33699;DHT22;20032;52.436;13.312;2024-01-10T12:36:21;3.40;96.50
33699;DHT22;20032;52.436;13.312;2024-01-10T12:38:48;3.50;95.30
33699;DHT22;20032;52.436;13.312;2024-01-10T12:41:15;3.50;95.20
33699;DHT22;20032;52.436;13.312;2024-01-10T12:43:42;3.80;95.20
33699;DHT22;20032;52.436;13.312;2024-01-10T12:46:10;3.90;95.70
33699;DHT22;20032;52.436;13.312;2024-01-10T12:48:38;3.80;94.40
33699;DHT22;20032;52.436;13.312;2024-01-10T12:51:08;3.90;94.20
33699;DHT22;20032;52.436;13.312;2024-01-10T12:53:38;3.80;94.80
33699;DHT22;20032;52.436;13.312;2024-01-10T12:56:09;4.10;95.20
33699;DHT22;20032;52.436;13.312;2024-01-10T12:58:40;4.40;94.50
33699;DHT22;20032;52.436;13.312;2024-01-10T13:01:08;4.10;94.10
33699;DHT22;20032;52.436;13.312;2024-01-10T13:03:34;4.30;93.80
33699;DHT22;20032;52.436;13.312;2024-01-10T13:05:59;4.50;93.40
33699;DHT22;20032;52.436;13.312;2024-01-10T13:08:25;4.50;93.10
33699;DHT22;20032;52.436;13.312;2024-01-10T13:10:51;4.60;93.00
33699;DHT22;20032;52.436;13.312;2024-01-10T13:13:18;4.70;92.70
33699;DHT22;20032;52.436;13.312;2024-01-10T13:15:45;4.50;92.60
33699;DHT22;20032;52.436;13.312;2024-01-10T13:18:11;4.40;92.70
33699;DHT22;20032;52.436;13.312;2024-01-10T13:20:37;4.30;93.00
33699;DHT22;20032;52.436;13.312;2024-01-10T13:23:03;3.90;92.30
33699;DHT22;20032;52.436;13.312;2024-01-10T13:25:30;3.50;93.10
33699;DHT22;20032;52.436;13.312;2024-01-10T13:27:56;3.00;93.10
33699;DHT22;20032;52.436;13.312;2024-01-10T13:30:22;2.60;93.90
33699;DHT22;20032;52.436;13.312;2024-01-10T13:32:48;2.50;94.80
33699;DHT22;20032;52.436;13.312;2024-01-10T13:35:14;2.40;94.90
33699;DHT22;20032;52.436;13.312;2024-01-10T13:37:40;2.40;95.00
33699;DHT22;20032;52.436;13.312;2024-01-10T13:40:08;2.30;94.80
33699;DHT22;20032;52.436;13.312;2024-01-10T13:42:37;2.30;94.80
33699;DHT22;20032;52.436;13.312;2024-01-10T13:45:05;2.30;95.10
33699;DHT22;20032;52.436;13.312;2024-01-10T13:47:32;2.60;95.20
33699;DHT22;20032;52.436;13.312;2024-01-10T13:49:59;2.50;94.40
33699;DHT22;20032;52.436;13.312;2024-01-10T13:52:24;2.40;94.40
33699;DHT22;20032;52.436;13.312;2024-01-10T13:54:50;2.40;95.10
33699;DHT22;20032;52.436;13.312;2024-01-10T13:57:16;2.40;95.10
33699;DHT22;20032;52.436;13.312;2024-01-10T13:59:44;2.30;94.60
33699;DHT22;20032;52.436;13.312;2024-01-10T14:02:11;2.10;95.10
33699;DHT22;20032;52.436;13.312;2024-01-10T14:04:37;1.90;95.20
33699;DHT22;20032;52.436;13.312;2024-01-10T14:07:02;1.70;95.40
33699;DHT22;20032;52.436;13.312;2024-01-10T14:09:31;1.60;95.70
33699;DHT22;20032;52.436;13.312;2024-01-10T14:11:57;1.50;96.40
33699;DHT22;20032;52.436;13.312;2024-01-10T14:14:22;1.40;95.80
33699;DHT22;20032;52.436;13.312;2024-01-10T14:16:48;1.30;95.30
33699;DHT22;20032;52.436;13.312;2024-01-10T14:19:15;1.30;95.40
33699;DHT22;20032;52.436;13.312;2024-01-10T14:21:42;1.30;96.00
33699;DHT22;20032;52.436;13.312;2024-01-10T14:24:08;1.20;95.70
33699;DHT22;20032;52.436;13.312;2024-01-10T14:26:34;1.10;96.20
33699;DHT22;20032;52.436;13.312;2024-01-10T14:29:00;1.20;96.50
33699;DHT22;20032;52.436;13.312;2024-01-10T14:31:26;1.10;96.70
33699;DHT22;20032;52.436;13.312;2024-01-10T14:33:53;1.00;97.40
33699;DHT22;20032;52.436;13.312;2024-01-10T14:36:19;1.00;97.00
33699;DHT22;20032;52.436;13.312;2024-01-10T14:38:44;0.80;97.40
33699;DHT22;20032;52.436;13.312;2024-01-10T14:41:10;0.80;98.00
33699;DHT22;20032;52.436;13.312;2024-01-10T14:43:37;0.70;97.90
33699;DHT22;20032;52.436;13.312;2024-01-10T14:46:04;0.70;99.30
33699;DHT22;20032;52.436;13.312;2024-01-10T14:48:31;0.70;99.90
33699;DHT22;20032;52.436;13.312;2024-01-10T14:50:58;0.50;99.90
33699;DHT22;20032;52.436;13.312;2024-01-10T14:53:25;0.50;99.70
33699;DHT22;20032;52.436;13.312;2024-01-10T14:55:51;0.60;99.70
33699;DHT22;20032;52.436;13.312;2024-01-10T14:58:16;0.50;99.90
33699;DHT22;20032;52.436;13.312;2024-01-10T15:00:43;0.50;99.90
33699;DHT22;20032;52.436;13.312;2024-01-10T15:03:09;0.50;99.90
33699;DHT22;20032;52.436;13.312;2024-01-10T15:05:35;0.40;99.90
33699;DHT22;20032;52.436;13.312;2024-01-10T15:08:01;0.40;99.90
33699;DHT22;20032;52.436;13.312;2024-01-10T15:10:27;0.30;99.90
33699;DHT22;20032;52.436;13.312;2024-01-10T15:12:53;0.20;99.90
33699;DHT22;20032;52.436;13.312;2024-01-10T15:15:18;0.10;99.90
33699;DHT22;20032;52.436;13.312;2024-01-10T15:17:44;0.00;99.90
33699;DHT22;20032;52.436;13.312;2024-01-10T15:20:10;0.00;99.90
33699;DHT22;20032;52.436;13.312;2024-01-10T15:22:35;0.00;99.90
33699;DHT22;20032;52.436;13.312;2024-01-10T15:25:04;-0.10;99.90
33699;DHT22;20032;52.436;13.312;2024-01-10T15:27:30;-0.10;99.90
33699;DHT22;20032;52.436;13.312;2024-01-10T15:29:55;-0.20;99.90
33699;DHT22;20032;52.436;13.312;2024-01-10T15:32:21;-0.20;99.90
33699;DHT22;20032;52.436;13.312;2024-01-10T15:34:46;-0.20;99.90
33699;DHT22;20032;52.436;13.312;2024-01-10T15:37:12;-0.30;99.90
33699;DHT22;20032;52.436;13.312;2024-01-10T15:39:40;-0.30;99.90
33699;DHT22;20032;52.436;13.312;2024-01-10T15:42:06;-0.30;99.90
33699;DHT22;20032;52.436;13.312;2024-01-10T15:44:31;-0.30;99.90
33699;DHT22;20032;52.436;13.312;2024-01-10T15:46:57;-0.40;99.90
33699;DHT22;20032;52.436;13.312;2024-01-10T15:49:23;-0.50;99.90
33699;DHT22;20032;52.436;13.312;2024-01-10T15:51:49;-0.50;99.90
33699;DHT22;20032;52.436;13.312;2024-01-10T15:54:16;-0.60;99.90
33699;DHT22;20032;52.436;13.312;2024-01-10T15:56:41;-0.60;99.90